Time,TemperatureF,DewpointF,PressureIn,WindDirection,WindDirectionDegrees,WindSpeedMPH,WindSpeedGustMPH,Humidity,HourlyPrecipIn,Conditions,Clouds,dailyrainin,SoftwareType,DateUTC
2013-06-05 00:02:00,61.7,59.0,29.98,ESE,113,1.0,3.0,90,0.00,,,0.00,weatherlink.com 1.10,2013-06-05 05:02:00,
2013-06-05 00:17:00,62.1,59.0,29.98,NNE,18,0.0,1.0,89,0.00,,,0.00,weatherlink.com 1.10,2013-06-05 05:17:00,
2013-06-05 00:47:00,60.7,58.0,29.97,ENE,70,0.0,0.0,91,0.00,,,0.00,weatherlink.com 1.10,2013-06-05 05:47:00,
2013-06-05 01:02:00,60.3,58.0,29.97,SSE,148,0.0,1.0,92,0.00,,,0.00,weatherlink.com 1.10,2013-06-05 06:02:00,
2013-06-05 01:17:00,60.5,59.0,29.97,SSE,148,0.0,1.0,93,0.00,,,0.00,weatherlink.com 1.10,2013-06-05 06:17:00,
2013-06-05 01:32:00,60.6,58.0,29.97,East,82,0.0,1.0,92,0.00,,,0.00,weatherlink.com 1.10,2013-06-05 06:32:00,
2013-06-05 01:47:00,60.5,59.0,29.98,NE,41,1.0,1.0,93,0.00,,,0.00,weatherlink.com 1.10,2013-06-05 06:47:00,
2013-06-05 02:02:00,60.2,58.0,29.98,NNW,338,1.0,2.0,93,0.00,,,0.00,weatherlink.com 1.10,2013-06-05 07:02:00,
2013-06-05 02:17:00,60.3,58.0,29.99,NNW,338,1.0,1.0,93,0.00,,,0.00,weatherlink.com 1.10,2013-06-05 07:17:00,
2013-06-05 02:32:00,60.9,59.0,29.99,NW,322,0.0,2.0,92,0.00,,,0.00,weatherlink.com 1.10,2013-06-05 07:32:00,
2013-06-05 02:47:00,60.4,58.0,29.98,North,352,0.0,1.0,93,0.00,,,0.00,weatherlink.com 1.10,2013-06-05 07:47:00,
2013-06-05 03:02:00,59.3,58.0,29.98,North,352,0.0,0.0,94,0.00,,,0.00,weatherlink.com 1.10,2013-06-05 08:02:00,
2013-06-05 03:17:00,58.2,57.0,29.96,North,352,0.0,0.0,94,0.00,,,0.00,weatherlink.com 1.10,2013-06-05 08:17:00,
2013-06-05 03:32:00,57.5,56.0,29.96,North,352,0.0,0.0,95,0.00,,,0.00,weatherlink.com 1.10,2013-06-05 08:32:00,
2013-06-05 03:47:00,57.8,57.0,29.96,North,351,0.0,0.0,97,0.00,,,0.00,weatherlink.com 1.10,2013-06-05 08:47:00,
2013-06-05 04:02:00,58.1,57.0,29.97,North,351,0.0,0.0,97,0.00,,,0.00,weatherlink.com 1.10,2013-06-05 09:02:00,
2013-06-05 04:17:00,57.6,57.0,29.97,North,352,0.0,0.0,97,0.00,,,0.00,weatherlink.com 1.10,2013-06-05 09:17:00,
2013-06-05 04:32:00,58.2,58.0,29.98,North,352,0.0,1.0,98,0.00,,,0.00,weatherlink.com 1.10,2013-06-05 09:32:00,
2013-06-05 04:47:00,58.1,57.0,29.98,North,352,1.0,1.0,97,0.00,,,0.00,weatherlink.com 1.10,2013-06-05 09:47:00,
2013-06-05 05:02:00,57.8,57.0,29.97,North,352,0.0,0.0,97,0.00,,,0.00,weatherlink.com 1.10,2013-06-05 10:02:00,
2013-06-05 05:17:00,57.4,57.0,29.97,North,351,0.0,0.0,97,0.00,,,0.00,weatherlink.com 1.10,2013-06-05 10:17:00,
2013-06-05 05:32:00,57.1,57.0,29.98,North,349,0.0,0.0,98,0.00,,,0.00,weatherlink.com 1.10,2013-06-05 10:32:00,
2013-06-05 06:03:00,57.5,57.0,29.98,North,350,0.0,0.0,98,0.00,,,0.00,weatherlink.com 1.10,2013-06-05 11:03:00,
2013-06-05 06:18:00,57.7,57.0,29.97,North,351,0.0,1.0,98,0.00,,,0.00,weatherlink.com 1.10,2013-06-05 11:18:00,
2013-06-05 06:33:00,58.1,58.0,29.97,North,349,0.0,0.0,98,0.00,,,0.00,weatherlink.com 1.10,2013-06-05 11:33:00,
2013-06-05 06:48:00,61.1,61.0,29.97,North,352,0.0,1.0,98,0.00,,,0.00,weatherlink.com 1.10,2013-06-05 11:48:00,
2013-06-05 07:03:00,62.2,62.0,29.96,East,91,0.0,0.0,98,0.00,,,0.00,weatherlink.com 1.10,2013-06-05 12:03:00,
2013-06-05 07:18:00,63.9,62.0,29.95,East,96,2.0,2.0,93,0.00,,,0.00,weatherlink.com 1.10,2013-06-05 12:18:00,
2013-06-05 07:33:00,65.0,61.0,29.93,ESE,105,3.0,4.0,87,0.00,,,0.00,weatherlink.com 1.10,2013-06-05 12:33:00,
2013-06-05 07:48:00,66.7,62.0,29.93,East,82,1.0,3.0,84,0.00,,,0.00,weatherlink.com 1.10,2013-06-05 12:48:00,
2013-06-05 08:03:00,68.5,62.0,29.93,SSE,151,1.0,4.0,80,0.00,,,0.00,weatherlink.com 1.10,2013-06-05 13:03:00,
2013-06-05 08:18:00,68.8,62.0,29.94,East,91,4.0,4.0,80,0.00,,,0.00,weatherlink.com 1.10,2013-06-05 13:18:00,
2013-06-05 08:33:00,69.8,63.0,29.93,South,173,0.0,4.0,80,0.00,,,0.00,weatherlink.com 1.10,2013-06-05 13:33:00,
2013-06-05 08:48:00,71.7,65.0,29.94,East,96,1.0,3.0,78,0.00,,,0.00,weatherlink.com 1.10,2013-06-05 13:48:00,
2013-06-05 09:03:00,73.0,65.0,29.94,SSE,148,2.0,3.0,75,0.00,,,0.00,weatherlink.com 1.10,2013-06-05 14:03:00,
2013-06-05 09:18:00,73.8,66.0,29.95,SSW,210,0.0,2.0,76,0.00,,,0.00,weatherlink.com 1.10,2013-06-05 14:18:00,
2013-06-05 09:33:00,73.9,65.0,29.95,West,270,0.0,3.0,74,0.00,,,0.00,weatherlink.com 1.10,2013-06-05 14:33:00,
2013-06-05 09:48:00,73.4,65.0,29.95,West,276,3.0,3.0,75,0.00,,,0.00,weatherlink.com 1.10,2013-06-05 14:48:00,
2013-06-05 10:03:00,74.0,65.0,29.95,NNE,32,1.0,3.0,74,0.00,,,0.00,weatherlink.com 1.10,2013-06-05 15:03:00,
2013-06-05 10:18:00,74.8,66.0,29.95,West,273,2.0,3.0,74,0.00,,,0.00,weatherlink.com 1.10,2013-06-05 15:18:00,
2013-06-05 10:33:00,73.8,65.0,29.95,WSW,250,0.0,5.0,74,0.00,,,0.00,weatherlink.com 1.10,2013-06-05 15:33:00,
2013-06-05 11:04:00,76.2,66.0,29.95,West,278,1.0,2.0,70,0.00,,,0.00,weatherlink.com 1.10,2013-06-05 16:04:00,
2013-06-05 11:18:00,78.1,65.0,29.93,WSW,246,2.0,3.0,64,0.00,,,0.00,weatherlink.com 1.10,2013-06-05 16:18:00,
2013-06-05 11:33:00,78.1,65.0,29.93,SSW,207,1.0,4.0,65,0.00,,,0.00,weatherlink.com 1.10,2013-06-05 16:33:00,
2013-06-05 11:49:00,77.4,64.0,29.93,West,280,3.0,5.0,64,0.00,,,0.00,weatherlink.com 1.10,2013-06-05 16:49:00,
2013-06-05 12:04:00,76.9,66.0,29.94,West,276,1.0,6.0,68,0.00,,,0.00,weatherlink.com 1.10,2013-06-05 17:04:00,
2013-06-05 12:19:00,76.8,65.0,29.93,West,273,1.0,5.0,67,0.00,,,0.00,weatherlink.com 1.10,2013-06-05 17:19:00,
2013-06-05 12:34:00,77.8,65.0,29.93,NW,321,3.0,4.0,64,0.00,,,0.00,weatherlink.com 1.10,2013-06-05 17:34:00,
2013-06-05 13:05:00,79.0,64.0,29.92,WSW,252,1.0,2.0,60,0.00,,,0.00,weatherlink.com 1.10,2013-06-05 18:05:00,
2013-06-05 13:19:00,78.8,64.0,29.91,West,277,2.0,4.0,60,0.00,,,0.00,weatherlink.com 1.10,2013-06-05 18:19:00,
2013-06-05 13:34:00,77.2,62.0,29.91,West,278,2.0,4.0,60,0.00,,,0.00,weatherlink.com 1.10,2013-06-05 18:34:00,
2013-06-05 13:49:00,78.5,63.0,29.90,West,280,2.0,2.0,60,0.00,,,0.00,weatherlink.com 1.10,2013-06-05 18:49:00,
2013-06-05 14:04:00,80.9,65.0,29.89,SSE,155,0.0,2.0,58,0.00,,,0.00,weatherlink.com 1.10,2013-06-05 19:04:00,
2013-06-05 14:19:00,80.0,62.0,29.88,NW,315,2.0,3.0,55,0.00,,,0.00,weatherlink.com 1.10,2013-06-05 19:19:00,
2013-06-05 14:34:00,80.1,64.0,29.88,WSW,257,2.0,3.0,59,0.00,,,0.00,weatherlink.com 1.10,2013-06-05 19:34:00,
2013-06-05 14:49:00,80.3,61.0,29.87,West,281,2.0,5.0,52,0.00,,,0.00,weatherlink.com 1.10,2013-06-05 19:49:00,
2013-06-05 15:04:00,79.5,56.0,29.86,NW,314,2.0,6.0,45,0.00,,,0.00,weatherlink.com 1.10,2013-06-05 20:04:00,
2013-06-05 15:19:00,79.3,59.0,29.85,WNW,286,2.0,4.0,50,0.00,,,0.00,weatherlink.com 1.10,2013-06-05 20:19:00,
2013-06-05 15:34:00,79.0,59.0,29.84,West,262,2.0,6.0,51,0.00,,,0.00,weatherlink.com 1.10,2013-06-05 20:34:00,
2013-06-05 15:49:00,78.8,59.0,29.83,NNW,341,5.0,7.0,51,0.00,,,0.00,weatherlink.com 1.10,2013-06-05 20:49:00,
2013-06-05 16:04:00,78.9,58.0,29.83,NNW,328,3.0,6.0,49,0.00,,,0.00,weatherlink.com 1.10,2013-06-05 21:04:00,
2013-06-05 16:19:00,79.0,59.0,29.84,NW,323,1.0,5.0,50,0.00,,,0.00,weatherlink.com 1.10,2013-06-05 21:19:00,
2013-06-05 16:34:00,78.3,60.0,29.85,WSW,240,1.0,4.0,53,0.00,,,0.00,weatherlink.com 1.10,2013-06-05 21:34:00,
2013-06-05 16:49:00,78.2,60.0,29.85,West,276,1.0,3.0,54,0.00,,,0.00,weatherlink.com 1.10,2013-06-05 21:49:00,
2013-06-05 17:04:00,76.5,60.0,29.83,NE,44,2.0,3.0,56,0.00,,,0.00,weatherlink.com 1.10,2013-06-05 22:04:00,
2013-06-05 17:19:00,75.1,60.0,29.83,NW,314,1.0,3.0,60,0.00,,,0.00,weatherlink.com 1.10,2013-06-05 22:19:00,
2013-06-05 17:34:00,74.1,62.0,29.84,West,271,1.0,3.0,66,0.00,,,0.00,weatherlink.com 1.10,2013-06-05 22:34:00,
2013-06-05 17:49:00,73.2,62.0,29.83,NW,308,0.0,1.0,68,0.00,,,0.00,weatherlink.com 1.10,2013-06-05 22:49:00,
2013-06-05 18:04:00,72.8,64.0,29.83,NW,323,0.0,0.0,73,0.00,,,0.00,weatherlink.com 1.10,2013-06-05 23:04:00,
2013-06-05 18:19:00,71.4,64.0,29.83,NW,307,0.0,1.0,77,0.00,,,0.00,weatherlink.com 1.10,2013-06-05 23:19:00,
2013-06-05 18:34:00,70.1,63.0,29.83,NW,307,0.0,1.0,79,0.00,,,0.00,weatherlink.com 1.10,2013-06-05 23:34:00,
2013-06-05 18:49:00,69.9,64.0,29.83,West,269,0.0,1.0,81,0.00,,,0.00,weatherlink.com 1.10,2013-06-05 23:49:00,
2013-06-05 19:04:00,69.4,64.0,29.84,West,269,0.0,0.0,84,0.00,,,0.00,weatherlink.com 1.10,2013-06-06 00:04:00,
2013-06-05 19:20:00,68.6,65.0,29.84,West,269,0.0,0.0,87,0.00,,,0.00,weatherlink.com 1.10,2013-06-06 00:20:00,
2013-06-05 19:35:00,67.8,65.0,29.85,West,268,0.0,0.0,90,0.00,,,0.00,weatherlink.com 1.10,2013-06-06 00:35:00,
2013-06-05 19:50:00,67.2,65.0,29.85,West,269,0.0,0.0,92,0.00,,,0.00,weatherlink.com 1.10,2013-06-06 00:50:00,
2013-06-05 20:05:00,66.8,65.0,29.85,West,268,0.0,0.0,93,0.00,,,0.00,weatherlink.com 1.10,2013-06-06 01:05:00,
2013-06-05 20:20:00,66.7,65.0,29.85,West,269,0.0,0.0,94,0.00,,,0.00,weatherlink.com 1.10,2013-06-06 01:20:00,
2013-06-05 20:35:00,66.5,65.0,29.86,West,268,0.0,0.0,94,0.00,,,0.00,weatherlink.com 1.10,2013-06-06 01:35:00,
2013-06-05 20:50:00,66.3,65.0,29.86,West,269,0.0,0.0,94,0.00,,,0.00,weatherlink.com 1.10,2013-06-06 01:50:00,
2013-06-05 21:05:00,66.1,64.0,29.85,West,269,0.0,0.0,94,0.00,,,0.00,weatherlink.com 1.10,2013-06-06 02:05:00,
2013-06-05 21:20:00,65.9,64.0,29.86,West,269,0.0,0.0,94,0.00,,,0.00,weatherlink.com 1.10,2013-06-06 02:20:00,
2013-06-05 21:35:00,65.8,64.0,29.86,West,269,0.0,0.0,94,0.00,,,0.00,weatherlink.com 1.10,2013-06-06 02:35:00,
2013-06-05 21:50:00,65.8,64.0,29.86,West,269,0.0,0.0,95,0.00,,,0.00,weatherlink.com 1.10,2013-06-06 02:50:00,
2013-06-05 22:05:00,65.8,64.0,29.86,East,100,0.0,1.0,94,0.00,,,0.00,weatherlink.com 1.10,2013-06-06 03:05:00,
2013-06-05 22:20:00,66.0,65.0,29.86,East,101,0.0,1.0,95,0.00,,,0.00,weatherlink.com 1.10,2013-06-06 03:20:00,
2013-06-05 22:35:00,65.5,64.0,29.86,NNW,331,1.0,1.0,94,0.00,,,0.00,weatherlink.com 1.10,2013-06-06 03:35:00,
2013-06-05 22:50:00,65.6,64.0,29.85,NNW,334,0.0,0.0,94,0.00,,,0.00,weatherlink.com 1.10,2013-06-06 03:50:00,
2013-06-05 23:04:00,65.6,64.0,29.85,ESE,104,0.0,0.0,95,0.00,,,0.00,weatherlink.com 1.10,2013-06-06 04:04:00,
2013-06-05 23:20:00,65.2,64.0,29.86,ESE,105,0.0,0.0,95,0.00,,,0.00,weatherlink.com 1.10,2013-06-06 04:20:00,
2013-06-05 23:34:00,65.0,64.0,29.86,ESE,104,0.0,0.0,96,0.00,,,0.00,weatherlink.com 1.10,2013-06-06 04:34:00,
2013-06-05 23:50:00,64.6,64.0,29.86,ESE,104,0.0,0.0,96,0.00,,,0.00,weatherlink.com 1.10,2013-06-06 04:50:00,